sensor_id;sensor_type;location;lat;lon;timestamp;temperature;humidity
3770;DHT22;1900;48.890;9.190;2023-06-22T00:00:51;28.40;55.20
3770;DHT22;1900;48.890;9.190;2023-06-22T00:03:18;28.40;55.70
3770;DHT22;1900;48.890;9.190;2023-06-22T00:05:44;28.30;55.10
3770;DHT22;1900;48.890;9.190;2023-06-22T00:08:10;28.30;55.20
3770;DHT22;1900;48.890;9.190;2023-06-22T00:10:36;28.30;55.20
3770;DHT22;1900;48.890;9.190;2023-06-22T00:13:02;28.30;55.10
3770;DHT22;1900;48.890;9.190;2023-06-22T00:15:27;28.30;55.00
3770;DHT22;1900;48.890;9.190;2023-06-22T00:17:53;28.30;55.10
3770;DHT22;1900;48.890;9.190;2023-06-22T00:20:19;28.20;55.10
3770;DHT22;1900;48.890;9.190;2023-06-22T00:22:45;28.20;55.10
3770;DHT22;1900;48.890;9.190;2023-06-22T00:25:11;28.20;55.20
3770;DHT22;1900;48.890;9.190;2023-06-22T00:27:37;28.20;55.20
3770;DHT22;1900;48.890;9.190;2023-06-22T00:30:06;28.20;55.20
3770;DHT22;1900;48.890;9.190;2023-06-22T00:32:32;28.20;55.20
3770;DHT22;1900;48.890;9.190;2023-06-22T00:34:57;28.20;55.20
3770;DHT22;1900;48.890;9.190;2023-06-22T00:37:23;28.10;55.20
3770;DHT22;1900;48.890;9.190;2023-06-22T00:39:52;28.10;55.20
3770;DHT22;1900;48.890;9.190;2023-06-22T00:42:19;28.10;55.20
3770;DHT22;1900;48.890;9.190;2023-06-22T00:44:46;28.10;55.30
3770;DHT22;1900;48.890;9.190;2023-06-22T00:47:13;28.10;55.30
3770;DHT22;1900;48.890;9.190;2023-06-22T00:49:41;28.10;55.30
3770;DHT22;1900;48.890;9.190;2023-06-22T00:52:07;28.00;55.20
3770;DHT22;1900;48.890;9.190;2023-06-22T00:54:36;28.00;55.30
3770;DHT22;1900;48.890;9.190;2023-06-22T00:57:02;27.90;55.20
3770;DHT22;1900;48.890;9.190;2023-06-22T00:59:28;27.90;55.30
3770;DHT22;1900;48.890;9.190;2023-06-22T01:01:54;27.90;55.30
3770;DHT22;1900;48.890;9.190;2023-06-22T01:04:24;27.80;55.00
3770;DHT22;1900;48.890;9.190;2023-06-22T01:09:59;27.70;55.30
3770;DHT22;1900;48.890;9.190;2023-06-22T01:12:27;27.60;55.20
3770;DHT22;1900;48.890;9.190;2023-06-22T01:15:11;27.60;55.30
3770;DHT22;1900;48.890;9.190;2023-06-22T01:17:40;27.60;55.50
3770;DHT22;1900;48.890;9.190;2023-06-22T01:20:10;27.60;55.50
3770;DHT22;1900;48.890;9.190;2023-06-22T01:23:07;27.60;55.70
3770;DHT22;1900;48.890;9.190;2023-06-22T01:25:47;27.60;55.80
3770;DHT22;1900;48.890;9.190;2023-06-22T01:31:10;27.60;55.90
3770;DHT22;1900;48.890;9.190;2023-06-22T01:33:40;27.60;55.90
3770;DHT22;1900;48.890;9.190;2023-06-22T01:36:07;27.60;55.80
3770;DHT22;1900;48.890;9.190;2023-06-22T01:38:34;27.60;55.80
3770;DHT22;1900;48.890;9.190;2023-06-22T01:41:01;27.60;55.80
3770;DHT22;1900;48.890;9.190;2023-06-22T01:43:28;27.60;55.80
3770;DHT22;1900;48.890;9.190;2023-06-22T01:46:01;27.60;55.80
3770;DHT22;1900;48.890;9.190;2023-06-22T01:48:27;27.60;55.90
3770;DHT22;1900;48.890;9.190;2023-06-22T01:50:53;27.60;55.90
3770;DHT22;1900;48.890;9.190;2023-06-22T01:53:22;27.60;55.80
3770;DHT22;1900;48.890;9.190;2023-06-22T01:55:51;27.60;55.90
3770;DHT22;1900;48.890;9.190;2023-06-22T01:58:17;27.60;55.90
3770;DHT22;1900;48.890;9.190;2023-06-22T02:00:53;27.60;55.80
3770;DHT22;1900;48.890;9.190;2023-06-22T02:03:23;27.60;55.80
3770;DHT22;1900;48.890;9.190;2023-06-22T02:05:56;27.50;55.80
3770;DHT22;1900;48.890;9.190;2023-06-22T02:08:27;27.50;55.80
3770;DHT22;1900;48.890;9.190;2023-06-22T02:10:55;27.50;55.60
3770;DHT22;1900;48.890;9.190;2023-06-22T02:13:24;27.40;55.60
3770;DHT22;1900;48.890;9.190;2023-06-22T02:15:50;27.40;55.80
3770;DHT22;1900;48.890;9.190;2023-06-22T02:18:16;27.40;56.40
3770;DHT22;1900;48.890;9.190;2023-06-22T02:20:42;27.30;55.70
3770;DHT22;1900;48.890;9.190;2023-06-22T02:23:08;27.30;55.70
3770;DHT22;1900;48.890;9.190;2023-06-22T02:25:35;27.30;55.80
3770;DHT22;1900;48.890;9.190;2023-06-22T02:28:01;27.30;55.90
3770;DHT22;1900;48.890;9.190;2023-06-22T02:30:27;27.30;56.00
3770;DHT22;1900;48.890;9.190;2023-06-22T02:32:53;27.30;56.00
3770;DHT22;1900;48.890;9.190;2023-06-22T02:35:28;27.30;56.00
3770;DHT22;1900;48.890;9.190;2023-06-22T02:38:01;27.30;56.10
3770;DHT22;1900;48.890;9.190;2023-06-22T02:40:28;27.20;55.90
3770;DHT22;1900;48.890;9.190;2023-06-22T02:42:56;27.20;56.00
3770;DHT22;1900;48.890;9.190;2023-06-22T02:45:23;27.20;56.00
3770;DHT22;1900;48.890;9.190;2023-06-22T02:47:50;27.20;56.10
3770;DHT22;1900;48.890;9.190;2023-06-22T02:50:16;27.20;56.10
3770;DHT22;1900;48.890;9.190;2023-06-22T02:52:42;27.10;56.60
3770;DHT22;1900;48.890;9.190;2023-06-22T02:55:08;27.10;56.10
3770;DHT22;1900;48.890;9.190;2023-06-22T02:57:34;27.10;56.10
3770;DHT22;1900;48.890;9.190;2023-06-22T03:00:03;27.10;56.00
3770;DHT22;1900;48.890;9.190;2023-06-22T03:02:37;27.10;56.10
3770;DHT22;1900;48.890;9.190;2023-06-22T03:05:03;27.10;56.10
3770;DHT22;1900;48.890;9.190;2023-06-22T03:07:29;27.10;56.20
3770;DHT22;1900;48.890;9.190;2023-06-22T03:09:56;27.10;56.20
3770;DHT22;1900;48.890;9.190;2023-06-22T03:12:22;27.00;56.20
3770;DHT22;1900;48.890;9.190;2023-06-22T03:14:51;27.00;56.20
3770;DHT22;1900;48.890;9.190;2023-06-22T03:17:17;27.00;56.20
3770;DHT22;1900;48.890;9.190;2023-06-22T03:19:43;27.00;56.20
3770;DHT22;1900;48.890;9.190;2023-06-22T03:22:09;27.00;56.20
3770;DHT22;1900;48.890;9.190;2023-06-22T03:24:34;27.00;56.30
3770;DHT22;1900;48.890;9.190;2023-06-22T03:27:02;27.00;56.30
3770;DHT22;1900;48.890;9.190;2023-06-22T03:29:30;26.90;56.30
3770;DHT22;1900;48.890;9.190;2023-06-22T03:31:56;27.00;56.30
3770;DHT22;1900;48.890;9.190;2023-06-22T03:34:22;27.00;56.30
3770;DHT22;1900;48.890;9.190;2023-06-22T03:36:51;27.00;56.40
3770;DHT22;1900;48.890;9.190;2023-06-22T03:39:17;26.90;56.30
3770;DHT22;1900;48.890;9.190;2023-06-22T03:41:42;26.90;56.30
3770;DHT22;1900;48.890;9.190;2023-06-22T03:44:08;26.90;56.30
3770;DHT22;1900;48.890;9.190;2023-06-22T03:46:37;26.90;56.30
3770;DHT22;1900;48.890;9.190;2023-06-22T03:49:03;26.90;56.30
3770;DHT22;1900;48.890;9.190;2023-06-22T03:51:30;26.80;56.30
3770;DHT22;1900;48.890;9.190;2023-06-22T03:53:56;26.80;56.50
3770;DHT22;1900;48.890;9.190;2023-06-22T03:56:22;26.80;56.50
3770;DHT22;1900;48.890;9.190;2023-06-22T03:58:47;26.80;56.50
3770;DHT22;1900;48.890;9.190;2023-06-22T04:01:13;26.80;56.50
3770;DHT22;1900;48.890;9.190;2023-06-22T04:03:40;26.80;56.60
3770;DHT22;1900;48.890;9.190;2023-06-22T04:06:06;26.80;57.10
3770;DHT22;1900;48.890;9.190;2023-06-22T04:08:32;26.80;56.60
3770;DHT22;1900;48.890;9.190;2023-06-22T04:10:57;26.80;56.60
3770;DHT22;1900;48.890;9.190;2023-06-22T04:13:23;26.90;56.70
3770;DHT22;1900;48.890;9.190;2023-06-22T04:15:48;26.90;56.70
3770;DHT22;1900;48.890;9.190;2023-06-22T04:18:14;26.90;56.70
3770;DHT22;1900;48.890;9.190;2023-06-22T04:20:40;26.90;56.80
3770;DHT22;1900;48.890;9.190;2023-06-22T04:23:06;26.90;56.70
3770;DHT22;1900;48.890;9.190;2023-06-22T04:25:31;26.90;56.70
3770;DHT22;1900;48.890;9.190;2023-06-22T04:27:57;26.80;56.50
3770;DHT22;1900;48.890;9.190;2023-06-22T04:30:23;26.80;56.60
3770;DHT22;1900;48.890;9.190;2023-06-22T04:32:48;26.80;56.70
3770;DHT22;1900;48.890;9.190;2023-06-22T04:35:25;26.80;56.80
3770;DHT22;1900;48.890;9.190;2023-06-22T04:37:53;26.80;56.80
3770;DHT22;1900;48.890;9.190;2023-06-22T04:40:24;26.80;56.80
3770;DHT22;1900;48.890;9.190;2023-06-22T04:42:49;26.80;56.80
3770;DHT22;1900;48.890;9.190;2023-06-22T04:45:19;26.80;56.80
3770;DHT22;1900;48.890;9.190;2023-06-22T04:47:45;26.80;56.90
3770;DHT22;1900;48.890;9.190;2023-06-22T04:50:12;26.80;57.00
3770;DHT22;1900;48.890;9.190;2023-06-22T04:52:38;26.80;57.10
3770;DHT22;1900;48.890;9.190;2023-06-22T04:55:04;26.80;57.10
3770;DHT22;1900;48.890;9.190;2023-06-22T04:57:30;26.80;57.10
3770;DHT22;1900;48.890;9.190;2023-06-22T05:00:00;26.90;57.30
3770;DHT22;1900;48.890;9.190;2023-06-22T05:02:38;26.90;57.20
3770;DHT22;1900;48.890;9.190;2023-06-22T05:05:04;26.80;57.10
3770;DHT22;1900;48.890;9.190;2023-06-22T05:07:34;26.80;57.10
3770;DHT22;1900;48.890;9.190;2023-06-22T05:10:01;26.80;57.10
3770;DHT22;1900;48.890;9.190;2023-06-22T05:12:28;26.80;57.20
3770;DHT22;1900;48.890;9.190;2023-06-22T05:14:54;26.80;57.20
3770;DHT22;1900;48.890;9.190;2023-06-22T05:17:20;26.90;57.40
3770;DHT22;1900;48.890;9.190;2023-06-22T05:19:46;26.90;57.40
3770;DHT22;1900;48.890;9.190;2023-06-22T05:22:15;26.90;57.40
3770;DHT22;1900;48.890;9.190;2023-06-22T05:24:42;26.90;57.50
3770;DHT22;1900;48.890;9.190;2023-06-22T05:27:08;26.90;57.60
3770;DHT22;1900;48.890;9.190;2023-06-22T05:29:34;27.00;57.60
3770;DHT22;1900;48.890;9.190;2023-06-22T05:32:00;27.00;57.60
3770;DHT22;1900;48.890;9.190;2023-06-22T05:34:26;27.00;57.70
3770;DHT22;1900;48.890;9.190;2023-06-22T05:36:52;27.00;57.70
3770;DHT22;1900;48.890;9.190;2023-06-22T05:39:18;27.00;57.70
3770;DHT22;1900;48.890;9.190;2023-06-22T05:41:45;27.10;57.80
3770;DHT22;1900;48.890;9.190;2023-06-22T05:44:11;27.10;57.80
3770;DHT22;1900;48.890;9.190;2023-06-22T05:46:39;27.20;57.90
3770;DHT22;1900;48.890;9.190;2023-06-22T05:49:05;27.20;58.00
3770;DHT22;1900;48.890;9.190;2023-06-22T05:51:31;27.20;58.00
3770;DHT22;1900;48.890;9.190;2023-06-22T05:53:56;27.20;58.00
3770;DHT22;1900;48.890;9.190;2023-06-22T05:56:22;27.20;57.90
3770;DHT22;1900;48.890;9.190;2023-06-22T05:58:48;27.30;58.00
3770;DHT22;1900;48.890;9.190;2023-06-22T06:01:13;27.30;58.10
3770;DHT22;1900;48.890;9.190;2023-06-22T06:03:41;27.30;58.10
3770;DHT22;1900;48.890;9.190;2023-06-22T06:06:07;27.40;58.20
3770;DHT22;1900;48.890;9.190;2023-06-22T06:08:33;27.40;58.30
3770;DHT22;1900;48.890;9.190;2023-06-22T06:10:59;27.40;58.20
3770;DHT22;1900;48.890;9.190;2023-06-22T06:13:24;27.40;58.30
3770;DHT22;1900;48.890;9.190;2023-06-22T06:15:50;27.50;58.30
3770;DHT22;1900;48.890;9.190;2023-06-22T06:18:20;27.50;58.40
3770;DHT22;1900;48.890;9.190;2023-06-22T06:20:46;27.60;58.40
3770;DHT22;1900;48.890;9.190;2023-06-22T06:23:12;27.60;58.30
3770;DHT22;1900;48.890;9.190;2023-06-22T06:25:37;27.60;58.30
3770;DHT22;1900;48.890;9.190;2023-06-22T06:28:03;27.60;58.30
3770;DHT22;1900;48.890;9.190;2023-06-22T06:30:29;27.70;58.50
3770;DHT22;1900;48.890;9.190;2023-06-22T06:32:55;27.70;58.40
3770;DHT22;1900;48.890;9.190;2023-06-22T06:35:21;27.70;58.50
3770;DHT22;1900;48.890;9.190;2023-06-22T06:37:49;27.80;58.60
3770;DHT22;1900;48.890;9.190;2023-06-22T06:40:16;27.80;58.70
3770;DHT22;1900;48.890;9.190;2023-06-22T06:42:46;27.90;58.80
3770;DHT22;1900;48.890;9.190;2023-06-22T06:45:18;27.90;58.80
3770;DHT22;1900;48.890;9.190;2023-06-22T06:47:44;28.00;58.80
3770;DHT22;1900;48.890;9.190;2023-06-22T06:50:11;28.00;58.80
3770;DHT22;1900;48.890;9.190;2023-06-22T06:52:37;28.10;58.90
3770;DHT22;1900;48.890;9.190;2023-06-22T06:55:03;28.10;58.90
3770;DHT22;1900;48.890;9.190;2023-06-22T06:57:30;28.20;59.00
3770;DHT22;1900;48.890;9.190;2023-06-22T06:59:56;28.20;58.90
3770;DHT22;1900;48.890;9.190;2023-06-22T07:02:23;28.30;59.00
3770;DHT22;1900;48.890;9.190;2023-06-22T07:04:49;28.30;59.00
3770;DHT22;1900;48.890;9.190;2023-06-22T07:07:15;28.30;59.00
3770;DHT22;1900;48.890;9.190;2023-06-22T07:09:40;28.40;59.10
3770;DHT22;1900;48.890;9.190;2023-06-22T07:12:06;28.40;59.10
3770;DHT22;1900;48.890;9.190;2023-06-22T07:14:32;28.50;59.20
3770;DHT22;1900;48.890;9.190;2023-06-22T07:16:58;28.60;59.30
3770;DHT22;1900;48.890;9.190;2023-06-22T07:19:25;28.60;59.30
3770;DHT22;1900;48.890;9.190;2023-06-22T07:21:52;28.70;59.30
3770;DHT22;1900;48.890;9.190;2023-06-22T07:24:22;28.80;59.30
3770;DHT22;1900;48.890;9.190;2023-06-22T07:26:48;28.80;59.30
3770;DHT22;1900;48.890;9.190;2023-06-22T07:29:19;28.90;59.40
3770;DHT22;1900;48.890;9.190;2023-06-22T07:31:46;28.90;59.40
3770;DHT22;1900;48.890;9.190;2023-06-22T07:34:13;28.90;59.30
3770;DHT22;1900;48.890;9.190;2023-06-22T07:36:38;29.00;59.40
3770;DHT22;1900;48.890;9.190;2023-06-22T07:39:04;29.10;59.40
3770;DHT22;1900;48.890;9.190;2023-06-22T07:41:30;29.10;59.40
3770;DHT22;1900;48.890;9.190;2023-06-22T07:43:56;29.20;59.50
3770;DHT22;1900;48.890;9.190;2023-06-22T07:46:22;29.30;59.50
3770;DHT22;1900;48.890;9.190;2023-06-22T07:48:48;29.30;59.50
3770;DHT22;1900;48.890;9.190;2023-06-22T07:51:14;29.40;59.60
3770;DHT22;1900;48.890;9.190;2023-06-22T07:53:41;29.40;59.50
3770;DHT22;1900;48.890;9.190;2023-06-22T07:56:07;29.50;59.60
3770;DHT22;1900;48.890;9.190;2023-06-22T07:58:33;29.60;59.60
3770;DHT22;1900;48.890;9.190;2023-06-22T08:00:59;29.60;59.70
3770;DHT22;1900;48.890;9.190;2023-06-22T08:03:24;29.70;59.70
3770;DHT22;1900;48.890;9.190;2023-06-22T08:05:50;29.70;59.60
3770;DHT22;1900;48.890;9.190;2023-06-22T08:08:16;29.80;59.70
3770;DHT22;1900;48.890;9.190;2023-06-22T08:10:42;29.90;59.70
3770;DHT22;1900;48.890;9.190;2023-06-22T08:13:08;29.90;59.70
3770;DHT22;1900;48.890;9.190;2023-06-22T08:15:34;30.00;60.60
3770;DHT22;1900;48.890;9.190;2023-06-22T08:18:00;30.10;59.90
3770;DHT22;1900;48.890;9.190;2023-06-22T08:20:26;30.10;59.80
3770;DHT22;1900;48.890;9.190;2023-06-22T08:22:54;30.20;59.80
3770;DHT22;1900;48.890;9.190;2023-06-22T08:25:20;30.20;59.70
3770;DHT22;1900;48.890;9.190;2023-06-22T08:27:46;30.30;59.70
3770;DHT22;1900;48.890;9.190;2023-06-22T08:30:14;30.30;59.70
3770;DHT22;1900;48.890;9.190;2023-06-22T08:32:40;30.40;59.70
3770;DHT22;1900;48.890;9.190;2023-06-22T08:35:06;30.50;59.70
3770;DHT22;1900;48.890;9.190;2023-06-22T08:37:34;30.50;59.70
3770;DHT22;1900;48.890;9.190;2023-06-22T08:40:02;30.60;59.70
3770;DHT22;1900;48.890;9.190;2023-06-22T08:42:31;30.70;59.70
3770;DHT22;1900;48.890;9.190;2023-06-22T08:44:57;30.70;59.60
3770;DHT22;1900;48.890;9.190;2023-06-22T08:47:22;30.70;59.60
3770;DHT22;1900;48.890;9.190;2023-06-22T08:49:49;30.70;59.50
3770;DHT22;1900;48.890;9.190;2023-06-22T08:52:15;30.80;59.50
3770;DHT22;1900;48.890;9.190;2023-06-22T08:54:40;30.80;59.50
3770;DHT22;1900;48.890;9.190;2023-06-22T08:57:06;30.90;59.30
3770;DHT22;1900;48.890;9.190;2023-06-22T08:59:32;30.80;59.00
3770;DHT22;1900;48.890;9.190;2023-06-22T09:01:57;30.80;59.00
3770;DHT22;1900;48.890;9.190;2023-06-22T09:04:24;30.80;59.00
3770;DHT22;1900;48.890;9.190;2023-06-22T09:06:50;30.90;59.20
3770;DHT22;1900;48.890;9.190;2023-06-22T09:09:18;30.90;59.30
3770;DHT22;1900;48.890;9.190;2023-06-22T09:11:44;30.90;59.30
3770;DHT22;1900;48.890;9.190;2023-06-22T09:14:10;30.90;59.40
3770;DHT22;1900;48.890;9.190;2023-06-22T09:16:36;31.00;59.60
3770;DHT22;1900;48.890;9.190;2023-06-22T09:19:01;31.10;59.70
3770;DHT22;1900;48.890;9.190;2023-06-22T09:21:27;31.20;59.80
3770;DHT22;1900;48.890;9.190;2023-06-22T09:23:53;31.20;60.40
3770;DHT22;1900;48.890;9.190;2023-06-22T09:26:19;31.20;59.70
3770;DHT22;1900;48.890;9.190;2023-06-22T09:28:45;31.40;59.80
3770;DHT22;1900;48.890;9.190;2023-06-22T09:31:11;31.40;59.70
3770;DHT22;1900;48.890;9.190;2023-06-22T09:33:37;31.50;59.70
3770;DHT22;1900;48.890;9.190;2023-06-22T09:36:06;31.60;59.70
3770;DHT22;1900;48.890;9.190;2023-06-22T09:38:36;31.60;59.70
3770;DHT22;1900;48.890;9.190;2023-06-22T09:41:01;31.70;59.70
3770;DHT22;1900;48.890;9.190;2023-06-22T09:43:28;31.80;59.70
3770;DHT22;1900;48.890;9.190;2023-06-22T09:45:53;31.80;59.50
3770;DHT22;1900;48.890;9.190;2023-06-22T09:48:19;31.90;59.60
3770;DHT22;1900;48.890;9.190;2023-06-22T09:50:45;31.90;59.60
3770;DHT22;1900;48.890;9.190;2023-06-22T09:53:11;32.00;59.70
3770;DHT22;1900;48.890;9.190;2023-06-22T09:55:36;32.10;59.90
3770;DHT22;1900;48.890;9.190;2023-06-22T09:58:02;32.10;59.80
3770;DHT22;1900;48.890;9.190;2023-06-22T10:00:28;32.30;60.00
3770;DHT22;1900;48.890;9.190;2023-06-22T10:02:53;32.30;60.00
3770;DHT22;1900;48.890;9.190;2023-06-22T10:05:19;32.40;60.00
3770;DHT22;1900;48.890;9.190;2023-06-22T10:07:45;32.50;60.00
3770;DHT22;1900;48.890;9.190;2023-06-22T10:10:11;32.60;60.00
3770;DHT22;1900;48.890;9.190;2023-06-22T10:12:42;32.70;60.10
3770;DHT22;1900;48.890;9.190;2023-06-22T10:15:08;32.80;60.00
3770;DHT22;1900;48.890;9.190;2023-06-22T10:17:34;32.90;60.00
3770;DHT22;1900;48.890;9.190;2023-06-22T10:20:00;33.00;60.00
3770;DHT22;1900;48.890;9.190;2023-06-22T10:22:31;33.00;59.90
3770;DHT22;1900;48.890;9.190;2023-06-22T10:24:56;33.10;59.80
3770;DHT22;1900;48.890;9.190;2023-06-22T10:27:22;33.10;59.80
3770;DHT22;1900;48.890;9.190;2023-06-22T10:29:48;33.20;59.80
3770;DHT22;1900;48.890;9.190;2023-06-22T10:32:13;33.20;59.70
3770;DHT22;1900;48.890;9.190;2023-06-22T10:34:39;33.30;59.70
3770;DHT22;1900;48.890;9.190;2023-06-22T10:37:05;33.30;59.70
3770;DHT22;1900;48.890;9.190;2023-06-22T10:39:30;33.40;59.70
3770;DHT22;1900;48.890;9.190;2023-06-22T10:41:56;33.40;60.30
3770;DHT22;1900;48.890;9.190;2023-06-22T10:44:22;33.50;59.60
3770;DHT22;1900;48.890;9.190;2023-06-22T10:46:47;33.50;59.70
3770;DHT22;1900;48.890;9.190;2023-06-22T10:49:13;33.60;59.70
3770;DHT22;1900;48.890;9.190;2023-06-22T10:51:39;33.60;59.60
3770;DHT22;1900;48.890;9.190;2023-06-22T10:54:04;33.80;59.70
3770;DHT22;1900;48.890;9.190;2023-06-22T10:56:30;33.80;59.60
3770;DHT22;1900;48.890;9.190;2023-06-22T10:58:56;33.80;59.60
3770;DHT22;1900;48.890;9.190;2023-06-22T11:01:22;33.90;59.70
3770;DHT22;1900;48.890;9.190;2023-06-22T11:03:48;33.90;59.60
3770;DHT22;1900;48.890;9.190;2023-06-22T11:06:14;34.00;60.20
3770;DHT22;1900;48.890;9.190;2023-06-22T11:08:40;34.10;59.90
3770;DHT22;1900;48.890;9.190;2023-06-22T11:11:09;34.10;59.60
3770;DHT22;1900;48.890;9.190;2023-06-22T11:13:34;34.10;59.50
3770;DHT22;1900;48.890;9.190;2023-06-22T11:16:00;34.20;59.50
3770;DHT22;1900;48.890;9.190;2023-06-22T11:18:25;34.20;59.30
3770;DHT22;1900;48.890;9.190;2023-06-22T11:20:51;34.20;59.20
3770;DHT22;1900;48.890;9.190;2023-06-22T11:23:17;34.30;59.20
3770;DHT22;1900;48.890;9.190;2023-06-22T11:25:43;34.30;59.20
3770;DHT22;1900;48.890;9.190;2023-06-22T11:28:08;34.30;59.10
3770;DHT22;1900;48.890;9.190;2023-06-22T11:30:34;34.30;59.10
3770;DHT22;1900;48.890;9.190;2023-06-22T11:33:00;34.40;59.00
3770;DHT22;1900;48.890;9.190;2023-06-22T11:35:26;34.40;58.90
3770;DHT22;1900;48.890;9.190;2023-06-22T11:37:51;34.40;58.90
3770;DHT22;1900;48.890;9.190;2023-06-22T11:40:17;34.40;58.80
3770;DHT22;1900;48.890;9.190;2023-06-22T11:42:43;34.40;58.70
3770;DHT22;1900;48.890;9.190;2023-06-22T11:45:09;34.40;58.70
3770;DHT22;1900;48.890;9.190;2023-06-22T11:47:35;34.40;58.60
3770;DHT22;1900;48.890;9.190;2023-06-22T11:50:02;34.40;58.60
3770;DHT22;1900;48.890;9.190;2023-06-22T11:52:28;34.50;58.70
3770;DHT22;1900;48.890;9.190;2023-06-22T11:54:53;34.50;58.70
3770;DHT22;1900;48.890;9.190;2023-06-22T11:57:19;34.50;58.70
3770;DHT22;1900;48.890;9.190;2023-06-22T11:59:45;34.50;58.60
3770;DHT22;1900;48.890;9.190;2023-06-22T12:02:10;34.50;58.70
3770;DHT22;1900;48.890;9.190;2023-06-22T12:04:36;34.50;58.50
3770;DHT22;1900;48.890;9.190;2023-06-22T12:07:02;34.50;58.40
3770;DHT22;1900;48.890;9.190;2023-06-22T12:09:28;34.50;58.30
3770;DHT22;1900;48.890;9.190;2023-06-22T12:11:54;34.50;58.20
3770;DHT22;1900;48.890;9.190;2023-06-22T12:14:19;34.50;58.00
3770;DHT22;1900;48.890;9.190;2023-06-22T12:16:45;34.50;57.90
3770;DHT22;1900;48.890;9.190;2023-06-22T12:19:11;34.40;57.70
3770;DHT22;1900;48.890;9.190;2023-06-22T12:21:37;34.40;57.80
3770;DHT22;1900;48.890;9.190;2023-06-22T12:24:03;34.30;57.80
3770;DHT22;1900;48.890;9.190;2023-06-22T12:26:29;34.40;57.90
3770;DHT22;1900;48.890;9.190;2023-06-22T12:28:55;34.40;57.90
3770;DHT22;1900;48.890;9.190;2023-06-22T12:31:20;34.40;57.90
3770;DHT22;1900;48.890;9.190;2023-06-22T12:33:46;34.40;57.90
3770;DHT22;1900;48.890;9.190;2023-06-22T12:36:12;34.40;57.90
3770;DHT22;1900;48.890;9.190;2023-06-22T12:38:37;34.30;57.80
3770;DHT22;1900;48.890;9.190;2023-06-22T12:41:03;34.40;57.90
3770;DHT22;1900;48.890;9.190;2023-06-22T12:43:28;34.40;57.90
3770;DHT22;1900;48.890;9.190;2023-06-22T12:45:54;34.40;57.90
3770;DHT22;1900;48.890;9.190;2023-06-22T12:48:22;34.40;57.90
3770;DHT22;1900;48.890;9.190;2023-06-22T12:50:48;34.40;57.90
3770;DHT22;1900;48.890;9.190;2023-06-22T12:53:13;34.40;57.70
3770;DHT22;1900;48.890;9.190;2023-06-22T12:55:39;34.40;57.80
3770;DHT22;1900;48.890;9.190;2023-06-22T12:58:05;34.40;57.60
3770;DHT22;1900;48.890;9.190;2023-06-22T13:00:30;34.30;57.60
3770;DHT22;1900;48.890;9.190;2023-06-22T13:02:56;34.30;57.60
3770;DHT22;1900;48.890;9.190;2023-06-22T13:05:22;34.30;57.50
3770;DHT22;1900;48.890;9.190;2023-06-22T13:07:48;34.30;57.40
3770;DHT22;1900;48.890;9.190;2023-06-22T13:10:13;34.30;57.40
3770;DHT22;1900;48.890;9.190;2023-06-22T13:12:39;34.30;57.50
3770;DHT22;1900;48.890;9.190;2023-06-22T13:15:05;34.30;57.50
3770;DHT22;1900;48.890;9.190;2023-06-22T13:17:31;34.30;57.50
3770;DHT22;1900;48.890;9.190;2023-06-22T13:19:57;34.30;57.50
3770;DHT22;1900;48.890;9.190;2023-06-22T13:24:52;34.30;57.50
3770;DHT22;1900;48.890;9.190;2023-06-22T13:27:17;34.30;57.60
3770;DHT22;1900;48.890;9.190;2023-06-22T13:29:44;34.30;57.50
3770;DHT22;1900;48.890;9.190;2023-06-22T13:32:10;34.30;57.50
3770;DHT22;1900;48.890;9.190;2023-06-22T13:34:35;34.20;57.50
3770;DHT22;1900;48.890;9.190;2023-06-22T13:37:01;34.20;57.50
3770;DHT22;1900;48.890;9.190;2023-06-22T13:39:27;34.30;57.50
3770;DHT22;1900;48.890;9.190;2023-06-22T13:41:52;34.30;57.50
3770;DHT22;1900;48.890;9.190;2023-06-22T13:44:18;34.30;57.40
3770;DHT22;1900;48.890;9.190;2023-06-22T13:46:44;34.30;57.40
3770;DHT22;1900;48.890;9.190;2023-06-22T13:49:09;34.30;57.50
3770;DHT22;1900;48.890;9.190;2023-06-22T13:51:36;34.30;57.50
3770;DHT22;1900;48.890;9.190;2023-06-22T13:54:01;34.30;57.50
3770;DHT22;1900;48.890;9.190;2023-06-22T13:56:27;34.40;57.40
3770;DHT22;1900;48.890;9.190;2023-06-22T13:58:53;34.40;57.20
3770;DHT22;1900;48.890;9.190;2023-06-22T14:01:18;34.40;57.10
3770;DHT22;1900;48.890;9.190;2023-06-22T14:03:44;34.40;57.10
3770;DHT22;1900;48.890;9.190;2023-06-22T14:06:12;34.50;57.20
3770;DHT22;1900;48.890;9.190;2023-06-22T14:08:38;34.50;57.10
3770;DHT22;1900;48.890;9.190;2023-06-22T14:11:03;34.50;57.20
3770;DHT22;1900;48.890;9.190;2023-06-22T14:13:29;34.50;57.20
3770;DHT22;1900;48.890;9.190;2023-06-22T14:15:55;34.50;57.20
3770;DHT22;1900;48.890;9.190;2023-06-22T14:18:21;34.50;57.20
3770;DHT22;1900;48.890;9.190;2023-06-22T14:20:48;34.50;57.20
3770;DHT22;1900;48.890;9.190;2023-06-22T14:23:14;34.50;57.10
3770;DHT22;1900;48.890;9.190;2023-06-22T14:25:40;34.60;57.20
3770;DHT22;1900;48.890;9.190;2023-06-22T14:28:06;34.60;57.20
3770;DHT22;1900;48.890;9.190;2023-06-22T14:30:32;34.60;57.20
3770;DHT22;1900;48.890;9.190;2023-06-22T14:32:57;34.60;57.20
3770;DHT22;1900;48.890;9.190;2023-06-22T14:35:23;34.60;57.30
3770;DHT22;1900;48.890;9.190;2023-06-22T14:37:50;34.70;57.30
3770;DHT22;1900;48.890;9.190;2023-06-22T14:40:16;34.70;57.20
3770;DHT22;1900;48.890;9.190;2023-06-22T14:42:41;34.70;57.30
3770;DHT22;1900;48.890;9.190;2023-06-22T14:45:07;34.70;57.30
3770;DHT22;1900;48.890;9.190;2023-06-22T14:47:33;34.80;57.30
3770;DHT22;1900;48.890;9.190;2023-06-22T14:49:59;34.80;57.10
3770;DHT22;1900;48.890;9.190;2023-06-22T14:52:26;34.80;57.20
3770;DHT22;1900;48.890;9.190;2023-06-22T14:54:52;34.90;57.00
3770;DHT22;1900;48.890;9.190;2023-06-22T14:57:18;34.90;57.00
3770;DHT22;1900;48.890;9.190;2023-06-22T14:59:46;35.00;57.00
3770;DHT22;1900;48.890;9.190;2023-06-22T15:02:13;35.00;56.90
3770;DHT22;1900;48.890;9.190;2023-06-22T15:04:38;35.10;56.90
3770;DHT22;1900;48.890;9.190;2023-06-22T15:07:04;35.20;56.50
3770;DHT22;1900;48.890;9.190;2023-06-22T15:09:30;35.20;56.50
3770;DHT22;1900;48.890;9.190;2023-06-22T15:11:56;35.30;56.20
3770;DHT22;1900;48.890;9.190;2023-06-22T15:14:23;35.30;55.80
3770;DHT22;1900;48.890;9.190;2023-06-22T15:16:50;35.40;55.70
3770;DHT22;1900;48.890;9.190;2023-06-22T15:19:15;35.40;55.60
3770;DHT22;1900;48.890;9.190;2023-06-22T15:21:42;35.50;55.70
3770;DHT22;1900;48.890;9.190;2023-06-22T15:24:08;35.60;55.80
3770;DHT22;1900;48.890;9.190;2023-06-22T15:26:34;35.60;55.60
3770;DHT22;1900;48.890;9.190;2023-06-22T15:28:59;35.70;55.50
3770;DHT22;1900;48.890;9.190;2023-06-22T15:31:26;35.70;55.30
3770;DHT22;1900;48.890;9.190;2023-06-22T15:33:52;35.80;55.30
3770;DHT22;1900;48.890;9.190;2023-06-22T15:36:18;35.80;55.30
3770;DHT22;1900;48.890;9.190;2023-06-22T15:38:44;35.90;55.20
3770;DHT22;1900;48.890;9.190;2023-06-22T15:41:09;35.90;54.90
3770;DHT22;1900;48.890;9.190;2023-06-22T15:43:35;35.90;54.90
3770;DHT22;1900;48.890;9.190;2023-06-22T15:46:01;36.00;55.00
3770;DHT22;1900;48.890;9.190;2023-06-22T15:48:26;36.00;54.80
3770;DHT22;1900;48.890;9.190;2023-06-22T15:50:52;36.00;54.80
3770;DHT22;1900;48.890;9.190;2023-06-22T15:53:18;36.00;54.50
3770;DHT22;1900;48.890;9.190;2023-06-22T15:55:44;36.00;54.50
3770;DHT22;1900;48.890;9.190;2023-06-22T15:58:10;36.00;54.40
3770;DHT22;1900;48.890;9.190;2023-06-22T16:00:38;36.00;54.20
3770;DHT22;1900;48.890;9.190;2023-06-22T16:03:03;36.00;54.00
3770;DHT22;1900;48.890;9.190;2023-06-22T16:05:29;36.00;53.80